sensor_id;sensor_type;location;lat;lon;timestamp;pressure;altitude;pressure_sealevel;temperature;humidity
7157;BME280;3620;49.862;8.758;2022-09-25T00:00:24;98880.44;;;16.35;98.17
7157;BME280;3620;49.862;8.758;2022-09-25T00:02:52;98875.69;;;16.27;98.52
7157;BME280;3620;49.862;8.758;2022-09-25T00:05:19;98875.03;;;16.12;99.53
7157;BME280;3620;49.862;8.758;2022-09-25T00:07:46;98881.13;;;16.26;98.83
7157;BME280;3620;49.862;8.758;2022-09-25T00:10:13;98874.91;;;16.38;98.31
7157;BME280;3620;49.862;8.758;2022-09-25T00:12:39;98873.22;;;16.37;98.58
7157;BME280;3620;49.862;8.758;2022-09-25T00:15:07;98876.22;;;16.32;98.88
7157;BME280;3620;49.862;8.758;2022-09-25T00:17:34;98878.75;;;16.34;98.85
7157;BME280;3620;49.862;8.758;2022-09-25T00:20:02;98884.00;;;16.23;99.17
7157;BME280;3620;49.862;8.758;2022-09-25T00:22:28;98884.06;;;16.34;98.75
7157;BME280;3620;49.862;8.758;2022-09-25T00:24:55;98876.38;;;16.42;98.25
7157;BME280;3620;49.862;8.758;2022-09-25T00:27:22;98879.31;;;16.50;97.30
7157;BME280;3620;49.862;8.758;2022-09-25T00:29:49;98876.13;;;16.45;97.40
7157;BME280;3620;49.862;8.758;2022-09-25T00:32:15;98875.19;;;16.46;97.81
7157;BME280;3620;49.862;8.758;2022-09-25T00:34:42;98879.72;;;16.33;98.46
7157;BME280;3620;49.862;8.758;2022-09-25T00:37:10;98876.44;;;16.29;98.69
7157;BME280;3620;49.862;8.758;2022-09-25T00:39:37;98876.38;;;16.42;97.47
7157;BME280;3620;49.862;8.758;2022-09-25T00:42:04;98873.56;;;16.32;98.48
7157;BME280;3620;49.862;8.758;2022-09-25T00:44:55;98872.25;;;16.38;98.15
7157;BME280;3620;49.862;8.758;2022-09-25T00:47:30;98876.50;;;16.17;98.40
7157;BME280;3620;49.862;8.758;2022-09-25T00:50:05;98860.25;;;15.97;99.14
7157;BME280;3620;49.862;8.758;2022-09-25T00:52:39;98867.28;;;16.09;99.11
7157;BME280;3620;49.862;8.758;2022-09-25T00:55:07;98867.22;;;15.98;99.55
7157;BME280;3620;49.862;8.758;2022-09-25T00:57:38;98872.94;;;16.05;99.78
7157;BME280;3620;49.862;8.758;2022-09-25T01:00:09;98867.81;;;16.14;99.42
7157;BME280;3620;49.862;8.758;2022-09-25T01:02:39;98870.50;;;16.26;99.16
7157;BME280;3620;49.862;8.758;2022-09-25T01:05:10;98865.00;;;16.29;99.08
7157;BME280;3620;49.862;8.758;2022-09-25T01:07:42;98868.59;;;16.28;98.61
7157;BME280;3620;49.862;8.758;2022-09-25T01:10:10;98873.63;;;16.20;99.46
7157;BME280;3620;49.862;8.758;2022-09-25T01:12:40;98871.94;;;16.19;98.93
7157;BME280;3620;49.862;8.758;2022-09-25T01:15:09;98865.75;;;16.18;99.48
7157;BME280;3620;49.862;8.758;2022-09-25T01:17:44;98873.31;;;16.11;99.75
7157;BME280;3620;49.862;8.758;2022-09-25T01:20:21;98870.34;;;16.16;99.80
7157;BME280;3620;49.862;8.758;2022-09-25T01:23:03;98863.75;;;16.22;98.93
7157;BME280;3620;49.862;8.758;2022-09-25T01:25:38;98860.66;;;16.04;99.63
7157;BME280;3620;49.862;8.758;2022-09-25T01:28:25;98862.31;;;15.81;100.00
7157;BME280;3620;49.862;8.758;2022-09-25T01:31:00;98858.75;;;15.93;100.00
7157;BME280;3620;49.862;8.758;2022-09-25T01:33:32;98863.38;;;16.02;99.83
7157;BME280;3620;49.862;8.758;2022-09-25T01:36:02;98856.88;;;15.95;99.85
7157;BME280;3620;49.862;8.758;2022-09-25T01:38:37;98860.84;;;16.01;100.00
7157;BME280;3620;49.862;8.758;2022-09-25T01:41:09;98864.38;;;16.01;99.96
7157;BME280;3620;49.862;8.758;2022-09-25T01:43:39;98860.91;;;15.88;100.00
7157;BME280;3620;49.862;8.758;2022-09-25T01:46:14;98858.09;;;16.02;99.69
7157;BME280;3620;49.862;8.758;2022-09-25T01:48:44;98858.31;;;15.99;99.60
7157;BME280;3620;49.862;8.758;2022-09-25T01:51:15;98857.53;;;15.86;100.00
7157;BME280;3620;49.862;8.758;2022-09-25T01:53:46;98861.19;;;15.96;100.00
7157;BME280;3620;49.862;8.758;2022-09-25T01:56:20;98859.00;;;15.90;100.00
7157;BME280;3620;49.862;8.758;2022-09-25T01:58:59;98855.88;;;15.96;100.00
7157;BME280;3620;49.862;8.758;2022-09-25T02:01:33;98852.03;;;16.00;99.98
7157;BME280;3620;49.862;8.758;2022-09-25T02:04:04;98855.22;;;16.05;100.00
7157;BME280;3620;49.862;8.758;2022-09-25T02:06:34;98845.78;;;16.01;99.82
7157;BME280;3620;49.862;8.758;2022-09-25T02:09:05;98848.72;;;16.09;99.96
7157;BME280;3620;49.862;8.758;2022-09-25T02:11:37;98850.84;;;16.04;99.61
7157;BME280;3620;49.862;8.758;2022-09-25T02:14:09;98852.34;;;16.08;100.00
7157;BME280;3620;49.862;8.758;2022-09-25T02:16:40;98848.50;;;16.12;99.89
7157;BME280;3620;49.862;8.758;2022-09-25T02:19:08;98848.72;;;16.09;99.87
7157;BME280;3620;49.862;8.758;2022-09-25T02:21:59;98851.88;;;16.14;99.17
7157;BME280;3620;49.862;8.758;2022-09-25T02:24:34;98840.06;;;16.19;98.28
7157;BME280;3620;49.862;8.758;2022-09-25T02:27:03;98849.75;;;16.20;98.18
7157;BME280;3620;49.862;8.758;2022-09-25T02:29:29;98846.13;;;16.21;97.45
7157;BME280;3620;49.862;8.758;2022-09-25T02:32:00;98843.19;;;16.12;97.77
7157;BME280;3620;49.862;8.758;2022-09-25T02:34:30;98841.28;;;16.14;97.88
7157;BME280;3620;49.862;8.758;2022-09-25T02:36:56;98838.56;;;16.03;98.95
7157;BME280;3620;49.862;8.758;2022-09-25T02:39:25;98840.03;;;16.07;98.08
7157;BME280;3620;49.862;8.758;2022-09-25T02:42:03;98841.50;;;16.11;98.48
7157;BME280;3620;49.862;8.758;2022-09-25T02:44:44;98837.63;;;16.15;98.49
7157;BME280;3620;49.862;8.758;2022-09-25T02:47:23;98846.59;;;16.14;98.64
7157;BME280;3620;49.862;8.758;2022-09-25T02:49:57;98846.75;;;16.24;98.31
7157;BME280;3620;49.862;8.758;2022-09-25T02:52:34;98845.66;;;16.27;98.65
7157;BME280;3620;49.862;8.758;2022-09-25T02:55:07;98836.53;;;16.31;99.39
7157;BME280;3620;49.862;8.758;2022-09-25T02:57:44;98844.19;;;16.23;99.01
7157;BME280;3620;49.862;8.758;2022-09-25T03:00:14;98840.81;;;16.21;99.17
7157;BME280;3620;49.862;8.758;2022-09-25T03:02:44;98839.13;;;16.20;99.20
7157;BME280;3620;49.862;8.758;2022-09-25T03:05:13;98832.50;;;16.25;97.97
7157;BME280;3620;49.862;8.758;2022-09-25T03:07:40;98826.13;;;16.28;97.84
7157;BME280;3620;49.862;8.758;2022-09-25T03:10:25;98835.28;;;16.24;97.84
7157;BME280;3620;49.862;8.758;2022-09-25T03:12:53;98831.44;;;16.28;97.49
7157;BME280;3620;49.862;8.758;2022-09-25T03:15:20;98833.56;;;16.23;98.04
7157;BME280;3620;49.862;8.758;2022-09-25T03:17:49;98835.75;;;16.18;97.63
7157;BME280;3620;49.862;8.758;2022-09-25T03:20:16;98833.44;;;16.13;97.91
7157;BME280;3620;49.862;8.758;2022-09-25T03:22:43;98838.34;;;16.06;98.77
7157;BME280;3620;49.862;8.758;2022-09-25T03:25:09;98836.44;;;16.08;98.43
7157;BME280;3620;49.862;8.758;2022-09-25T03:27:36;98835.75;;;16.18;98.20
7157;BME280;3620;49.862;8.758;2022-09-25T03:30:03;98840.81;;;16.21;98.65
7157;BME280;3620;49.862;8.758;2022-09-25T03:32:30;98839.56;;;16.13;99.35
7157;BME280;3620;49.862;8.758;2022-09-25T03:34:58;98839.41;;;16.04;99.41
7157;BME280;3620;49.862;8.758;2022-09-25T03:37:25;98841.00;;;16.06;98.93
7157;BME280;3620;49.862;8.758;2022-09-25T03:39:51;98839.69;;;16.12;98.92
7157;BME280;3620;49.862;8.758;2022-09-25T03:42:18;98836.69;;;16.17;98.39
7157;BME280;3620;49.862;8.758;2022-09-25T03:44:44;98829.50;;;16.30;97.96
7157;BME280;3620;49.862;8.758;2022-09-25T03:47:11;98831.66;;;16.25;98.28
7157;BME280;3620;49.862;8.758;2022-09-25T03:49:38;98833.19;;;16.16;99.13
7157;BME280;3620;49.862;8.758;2022-09-25T03:52:06;98837.22;;;16.22;98.24
7157;BME280;3620;49.862;8.758;2022-09-25T03:54:38;98840.75;;;16.33;97.78
7157;BME280;3620;49.862;8.758;2022-09-25T03:57:05;98838.19;;;16.32;98.05
7157;BME280;3620;49.862;8.758;2022-09-25T03:59:32;98832.75;;;16.22;98.49
7157;BME280;3620;49.862;8.758;2022-09-25T04:01:59;98834.56;;;16.22;98.73
7157;BME280;3620;49.862;8.758;2022-09-25T04:04:26;98832.75;;;16.22;99.23
7157;BME280;3620;49.862;8.758;2022-09-25T04:06:54;98834.22;;;16.26;98.77
7157;BME280;3620;49.862;8.758;2022-09-25T04:09:22;98830.94;;;15.99;100.00
7157;BME280;3620;49.862;8.758;2022-09-25T04:11:49;98834.91;;;15.57;100.00
7157;BME280;3620;49.862;8.758;2022-09-25T04:14:15;98830.47;;;15.58;100.00
7157;BME280;3620;49.862;8.758;2022-09-25T04:16:43;98830.22;;;15.61;100.00
7157;BME280;3620;49.862;8.758;2022-09-25T04:19:09;98823.47;;;15.57;100.00
7157;BME280;3620;49.862;8.758;2022-09-25T04:21:36;98826.03;;;15.46;100.00
7157;BME280;3620;49.862;8.758;2022-09-25T04:24:02;98830.16;;;15.37;100.00
7157;BME280;3620;49.862;8.758;2022-09-25T04:26:48;98828.28;;;15.14;100.00
7157;BME280;3620;49.862;8.758;2022-09-25T04:29:17;98828.81;;;15.19;100.00
7157;BME280;3620;49.862;8.758;2022-09-25T04:31:43;98828.91;;;15.05;100.00
7157;BME280;3620;49.862;8.758;2022-09-25T04:34:30;98829.47;;;15.10;100.00
7157;BME280;3620;49.862;8.758;2022-09-25T04:36:56;98832.81;;;15.24;100.00
7157;BME280;3620;49.862;8.758;2022-09-25T04:39:23;98827.09;;;15.30;100.00
7157;BME280;3620;49.862;8.758;2022-09-25T04:41:51;98823.72;;;15.16;100.00
7157;BME280;3620;49.862;8.758;2022-09-25T04:44:17;98833.28;;;15.06;100.00
7157;BME280;3620;49.862;8.758;2022-09-25T04:46:44;98833.47;;;15.03;100.00
7157;BME280;3620;49.862;8.758;2022-09-25T04:49:11;98834.56;;;15.13;100.00
7157;BME280;3620;49.862;8.758;2022-09-25T04:51:38;98837.31;;;14.99;100.00
7157;BME280;3620;49.862;8.758;2022-09-25T04:54:05;98838.56;;;15.06;100.00
7157;BME280;3620;49.862;8.758;2022-09-25T04:56:31;98835.59;;;15.23;100.00
7157;BME280;3620;49.862;8.758;2022-09-25T04:58:59;98836.00;;;15.42;100.00
7157;BME280;3620;49.862;8.758;2022-09-25T05:01:26;98836.44;;;15.49;100.00
7157;BME280;3620;49.862;8.758;2022-09-25T05:03:52;98833.66;;;15.37;100.00
7157;BME280;3620;49.862;8.758;2022-09-25T05:06:19;98833.56;;;15.39;100.00
7157;BME280;3620;49.862;8.758;2022-09-25T05:08:47;98838.97;;;15.25;100.00
7157;BME280;3620;49.862;8.758;2022-09-25T05:11:14;98830.19;;;15.12;100.00
7157;BME280;3620;49.862;8.758;2022-09-25T05:13:41;98841.44;;;15.03;100.00
7157;BME280;3620;49.862;8.758;2022-09-25T05:16:09;98836.03;;;15.17;100.00
7157;BME280;3620;49.862;8.758;2022-09-25T05:18:37;98832.41;;;15.18;100.00
7157;BME280;3620;49.862;8.758;2022-09-25T05:21:04;98835.81;;;14.95;100.00
7157;BME280;3620;49.862;8.758;2022-09-25T05:23:30;98838.78;;;14.90;100.00
7157;BME280;3620;49.862;8.758;2022-09-25T05:25:57;98834.56;;;14.88;100.00
7157;BME280;3620;49.862;8.758;2022-09-25T05:28:26;98831.38;;;14.95;100.00
7157;BME280;3620;49.862;8.758;2022-09-25T05:30:53;98834.66;;;15.24;100.00
7157;BME280;3620;49.862;8.758;2022-09-25T05:33:21;98826.03;;;15.20;100.00
7157;BME280;3620;49.862;8.758;2022-09-25T05:35:47;98837.31;;;14.99;100.00
7157;BME280;3620;49.862;8.758;2022-09-25T05:38:14;98830.72;;;14.92;100.00
7157;BME280;3620;49.862;8.758;2022-09-25T05:40:44;98836.56;;;14.72;100.00
7157;BME280;3620;49.862;8.758;2022-09-25T05:43:10;98838.56;;;14.81;100.00
7157;BME280;3620;49.862;8.758;2022-09-25T05:45:37;98838.06;;;14.88;100.00
7157;BME280;3620;49.862;8.758;2022-09-25T05:48:05;98844.06;;;15.03;100.00
7157;BME280;3620;49.862;8.758;2022-09-25T05:50:34;98840.47;;;14.91;100.00
7157;BME280;3620;49.862;8.758;2022-09-25T05:53:02;98842.94;;;14.82;100.00
7157;BME280;3620;49.862;8.758;2022-09-25T05:55:29;98835.81;;;14.95;100.00
7157;BME280;3620;49.862;8.758;2022-09-25T05:58:00;98836.88;;;15.05;100.00
7157;BME280;3620;49.862;8.758;2022-09-25T06:00:27;98840.03;;;15.22;100.00
7157;BME280;3620;49.862;8.758;2022-09-25T06:02:55;98834.72;;;15.35;100.00
7157;BME280;3620;49.862;8.758;2022-09-25T06:05:21;98841.50;;;15.39;100.00
7157;BME280;3620;49.862;8.758;2022-09-25T06:07:53;98832.81;;;15.50;100.00
7157;BME280;3620;49.862;8.758;2022-09-25T06:10:20;98832.06;;;15.35;100.00
7157;BME280;3620;49.862;8.758;2022-09-25T06:12:46;98833.88;;;15.34;100.00
7157;BME280;3620;49.862;8.758;2022-09-25T06:15:13;98834.50;;;15.38;100.00
7157;BME280;3620;49.862;8.758;2022-09-25T06:17:40;98838.31;;;15.34;100.00
7157;BME280;3620;49.862;8.758;2022-09-25T06:20:08;98849.16;;;15.31;100.00
7157;BME280;3620;49.862;8.758;2022-09-25T06:22:35;98843.34;;;15.26;100.00
7157;BME280;3620;49.862;8.758;2022-09-25T06:25:04;98834.66;;;15.24;100.00
7157;BME280;3620;49.862;8.758;2022-09-25T06:27:31;98837.66;;;15.43;100.00
7157;BME280;3620;49.862;8.758;2022-09-25T06:29:58;98842.03;;;15.57;100.00
7157;BME280;3620;49.862;8.758;2022-09-25T06:32:24;98840.72;;;15.62;100.00
7157;BME280;3620;49.862;8.758;2022-09-25T06:34:51;98843.69;;;15.70;100.00
7157;BME280;3620;49.862;8.758;2022-09-25T06:37:18;98838.34;;;15.47;100.00
7157;BME280;3620;49.862;8.758;2022-09-25T06:39:44;98851.81;;;15.44;100.00
7157;BME280;3620;49.862;8.758;2022-09-25T06:42:12;98848.72;;;15.37;100.00
7157;BME280;3620;49.862;8.758;2022-09-25T06:44:39;98850.84;;;15.32;100.00
7157;BME280;3620;49.862;8.758;2022-09-25T06:47:06;98847.78;;;15.25;100.00
7157;BME280;3620;49.862;8.758;2022-09-25T06:49:34;98850.84;;;15.32;100.00
7157;BME280;3620;49.862;8.758;2022-09-25T06:52:01;98855.50;;;15.16;100.00
7157;BME280;3620;49.862;8.758;2022-09-25T06:54:29;98858.25;;;15.27;100.00
7157;BME280;3620;49.862;8.758;2022-09-25T06:56:56;98853.84;;;15.15;100.00
7157;BME280;3620;49.862;8.758;2022-09-25T06:59:24;98853.78;;;15.40;100.00
7157;BME280;3620;49.862;8.758;2022-09-25T07:01:51;98855.31;;;15.44;100.00
7157;BME280;3620;49.862;8.758;2022-09-25T07:04:17;98849.38;;;15.53;100.00
7157;BME280;3620;49.862;8.758;2022-09-25T07:06:43;98849.38;;;15.53;100.00
7157;BME280;3620;49.862;8.758;2022-09-25T07:09:10;98854.88;;;15.50;100.00
7157;BME280;3620;49.862;8.758;2022-09-25T07:11:36;98854.09;;;15.35;100.00
7157;BME280;3620;49.862;8.758;2022-09-25T07:14:08;98855.81;;;15.49;100.00
7157;BME280;3620;49.862;8.758;2022-09-25T07:16:36;98851.28;;;15.26;100.00
7157;BME280;3620;49.862;8.758;2022-09-25T07:19:03;98854.56;;;15.17;100.00
7157;BME280;3620;49.862;8.758;2022-09-25T07:21:29;98849.03;;;15.32;100.00
7157;BME280;3620;49.862;8.758;2022-09-25T07:23:56;98848.31;;;15.18;100.00
7157;BME280;3620;49.862;8.758;2022-09-25T07:26:24;98847.25;;;15.46;100.00
7157;BME280;3620;49.862;8.758;2022-09-25T07:28:53;98856.75;;;15.61;100.00
7157;BME280;3620;49.862;8.758;2022-09-25T07:31:22;98853.19;;;15.24;100.00
7157;BME280;3620;49.862;8.758;2022-09-25T07:33:51;98848.91;;;15.34;100.00
7157;BME280;3620;49.862;8.758;2022-09-25T07:36:18;98852.00;;;15.28;100.00
7157;BME280;3620;49.862;8.758;2022-09-25T07:38:48;98854.47;;;15.31;100.00
7157;BME280;3620;49.862;8.758;2022-09-25T07:41:15;98861.03;;;15.13;100.00
7157;BME280;3620;49.862;8.758;2022-09-25T07:43:43;98860.00;;;15.15;100.00
7157;BME280;3620;49.862;8.758;2022-09-25T07:46:10;98856.25;;;15.18;100.00
7157;BME280;3620;49.862;8.758;2022-09-25T07:48:37;98861.00;;;15.38;100.00
7157;BME280;3620;49.862;8.758;2022-09-25T07:51:07;98863.56;;;15.27;100.00
7157;BME280;3620;49.862;8.758;2022-09-25T07:53:33;98864.53;;;15.01;100.00
7157;BME280;3620;49.862;8.758;2022-09-25T07:56:01;98866.22;;;14.89;100.00
7157;BME280;3620;49.862;8.758;2022-09-25T07:58:28;98865.91;;;15.19;100.00
7157;BME280;3620;49.862;8.758;2022-09-25T08:00:59;98860.38;;;15.34;100.00
7157;BME280;3620;49.862;8.758;2022-09-25T08:03:26;98856.13;;;15.32;100.00
7157;BME280;3620;49.862;8.758;2022-09-25T08:05:56;98867.81;;;15.17;100.00
7157;BME280;3620;49.862;8.758;2022-09-25T08:08:25;98865.72;;;15.22;100.00
7157;BME280;3620;49.862;8.758;2022-09-25T08:10:52;98867.81;;;15.17;100.00
7157;BME280;3620;49.862;8.758;2022-09-25T08:13:20;98863.56;;;15.27;100.00
7157;BME280;3620;49.862;8.758;2022-09-25T08:15:47;98863.56;;;15.52;100.00
7157;BME280;3620;49.862;8.758;2022-09-25T08:18:14;98868.91;;;15.76;100.00
7157;BME280;3620;49.862;8.758;2022-09-25T08:20:40;98864.31;;;15.90;100.00
7157;BME280;3620;49.862;8.758;2022-09-25T08:23:07;98871.63;;;15.51;100.00
7157;BME280;3620;49.862;8.758;2022-09-25T08:25:35;98862.09;;;15.48;100.00
7157;BME280;3620;49.862;8.758;2022-09-25T08:28:02;98870.34;;;15.56;100.00
7157;BME280;3620;49.862;8.758;2022-09-25T08:30:28;98869.91;;;15.50;100.00
7157;BME280;3620;49.862;8.758;2022-09-25T08:32:55;98872.25;;;15.41;100.00
7157;BME280;3620;49.862;8.758;2022-09-25T08:35:21;98864.63;;;15.37;100.00
7157;BME280;3620;49.862;8.758;2022-09-25T08:37:48;98870.47;;;15.78;100.00
7157;BME280;3620;49.862;8.758;2022-09-25T08:40:16;98866.09;;;15.90;100.00
7157;BME280;3620;49.862;8.758;2022-09-25T08:42:47;98866.75;;;15.81;100.00
7157;BME280;3620;49.862;8.758;2022-09-25T08:45:25;98862.56;;;16.02;100.00
7157;BME280;3620;49.862;8.758;2022-09-25T08:48:17;98864.88;;;16.06;100.00
7157;BME280;3620;49.862;8.758;2022-09-25T08:51:02;98868.41;;;15.71;100.00
7157;BME280;3620;49.862;8.758;2022-09-25T08:53:32;98863.25;;;15.80;100.00
7157;BME280;3620;49.862;8.758;2022-09-25T08:56:01;98868.34;;;15.83;100.00
7157;BME280;3620;49.862;8.758;2022-09-25T08:58:47;98864.81;;;15.59;100.00
7157;BME280;3620;49.862;8.758;2022-09-25T09:01:18;98866.41;;;15.49;100.00
7157;BME280;3620;49.862;8.758;2022-09-25T09:03:52;98864.44;;;15.76;100.00
7157;BME280;3620;49.862;8.758;2022-09-25T09:06:22;98870.00;;;15.97;100.00
7157;BME280;3620;49.862;8.758;2022-09-25T09:08:54;98865.38;;;16.11;100.00
7157;BME280;3620;49.862;8.758;2022-09-25T09:11:25;98862.72;;;16.11;100.00
7157;BME280;3620;49.862;8.758;2022-09-25T09:13:59;98864.94;;;16.18;100.00
7157;BME280;3620;49.862;8.758;2022-09-25T09:16:33;98863.78;;;15.85;100.00
7157;BME280;3620;49.862;8.758;2022-09-25T09:19:03;98865.03;;;15.92;100.00
7157;BME280;3620;49.862;8.758;2022-09-25T09:21:34;98872.78;;;15.95;100.00
7157;BME280;3620;49.862;8.758;2022-09-25T09:24:06;98862.69;;;15.64;100.00
7157;BME280;3620;49.862;8.758;2022-09-25T09:26:48;98869.47;;;15.68;100.00
7157;BME280;3620;49.862;8.758;2022-09-25T09:29:39;98866.28;;;15.63;100.00
7157;BME280;3620;49.862;8.758;2022-09-25T09:32:37;98870.78;;;15.86;100.00
7157;BME280;3620;49.862;8.758;2022-09-25T09:35:14;98863.56;;;16.12;100.00
7157;BME280;3620;49.862;8.758;2022-09-25T09:37:51;98868.94;;;15.99;100.00
7157;BME280;3620;49.862;8.758;2022-09-25T09:40:27;98858.31;;;15.99;100.00
7157;BME280;3620;49.862;8.758;2022-09-25T09:43:04;98861.81;;;16.24;100.00
7157;BME280;3620;49.862;8.758;2022-09-25T09:45:43;98862.03;;;16.21;100.00
7157;BME280;3620;49.862;8.758;2022-09-25T09:48:16;98861.81;;;16.24;100.00
7157;BME280;3620;49.862;8.758;2022-09-25T09:50:48;98860.50;;;16.29;100.00
7157;BME280;3620;49.862;8.758;2022-09-25T09:53:26;98868.69;;;16.50;100.00
7157;BME280;3620;49.862;8.758;2022-09-25T09:55:57;98859.56;;;16.54;100.00
7157;BME280;3620;49.862;8.758;2022-09-25T09:58:30;98870.94;;;16.43;100.00
7157;BME280;3620;49.862;8.758;2022-09-25T10:01:00;98873.50;;;16.21;100.00
7157;BME280;3620;49.862;8.758;2022-09-25T10:03:32;98864.06;;;15.93;100.00
7157;BME280;3620;49.862;8.758;2022-09-25T10:06:03;98859.00;;;15.90;100.00
7157;BME280;3620;49.862;8.758;2022-09-25T10:08:31;98866.66;;;16.30;100.00
7157;BME280;3620;49.862;8.758;2022-09-25T10:10:57;98862.72;;;16.11;100.00
7157;BME280;3620;49.862;8.758;2022-09-25T10:13:26;98853.56;;;15.92;100.00
7157;BME280;3620;49.862;8.758;2022-09-25T10:16:00;98854.28;;;16.06;100.00
7157;BME280;3620;49.862;8.758;2022-09-25T10:18:41;98852.09;;;16.11;100.00
7157;BME280;3620;49.862;8.758;2022-09-25T10:21:13;98851.34;;;16.22;100.00
7157;BME280;3620;49.862;8.758;2022-09-25T10:23:47;98850.69;;;16.19;100.00
7157;BME280;3620;49.862;8.758;2022-09-25T10:26:25;98845.44;;;16.30;100.00
7157;BME280;3620;49.862;8.758;2022-09-25T10:28:52;98842.34;;;16.47;100.00
7157;BME280;3620;49.862;8.758;2022-09-25T10:31:24;98843.91;;;16.62;100.00
7157;BME280;3620;49.862;8.758;2022-09-25T10:34:01;98852.19;;;17.03;100.00
7157;BME280;3620;49.862;8.758;2022-09-25T10:36:31;98844.22;;;17.25;98.74
7157;BME280;3620;49.862;8.758;2022-09-25T10:38:59;98843.97;;;16.95;98.44
7157;BME280;3620;49.862;8.758;2022-09-25T10:41:27;98850.47;;;16.91;98.75
7157;BME280;3620;49.862;8.758;2022-09-25T10:43:57;98847.72;;;16.58;100.00
7157;BME280;3620;49.862;8.758;2022-09-25T10:46:28;98853.66;;;16.38;100.00
7157;BME280;3620;49.862;8.758;2022-09-25T10:49:18;98852.84;;;16.37;100.00
7157;BME280;3620;49.862;8.758;2022-09-25T10:52:04;98862.34;;;16.52;100.00
7157;BME280;3620;49.862;8.758;2022-09-25T10:54:31;98865.09;;;16.51;100.00
7157;BME280;3620;49.862;8.758;2022-09-25T10:56:59;98859.72;;;16.63;100.00
7157;BME280;3620;49.862;8.758;2022-09-25T10:59:26;98863.59;;;16.47;100.00
7157;BME280;3620;49.862;8.758;2022-09-25T11:01:55;98862.63;;;16.71;100.00
7157;BME280;3620;49.862;8.758;2022-09-25T11:04:24;98859.38;;;16.79;100.00
7157;BME280;3620;49.862;8.758;2022-09-25T11:06:55;98856.28;;;17.07;100.00
7157;BME280;3620;49.862;8.758;2022-09-25T11:09:24;98864.75;;;17.01;98.49
7157;BME280;3620;49.862;8.758;2022-09-25T11:11:53;98861.38;;;17.21;97.55
7157;BME280;3620;49.862;8.758;2022-09-25T11:14:30;98854.25;;;17.11;94.48
7157;BME280;3620;49.862;8.758;2022-09-25T11:17:00;98847.59;;;17.49;95.09
7157;BME280;3620;49.862;8.758;2022-09-25T11:19:31;98860.00;;;17.93;93.78
7157;BME280;3620;49.862;8.758;2022-09-25T11:22:04;98854.44;;;17.96;91.63
7157;BME280;3620;49.862;8.758;2022-09-25T11:24:57;98859.03;;;18.48;89.93
7157;BME280;3620;49.862;8.758;2022-09-25T11:27:31;98845.19;;;18.54;87.95
7157;BME280;3620;49.862;8.758;2022-09-25T11:30:03;98847.84;;;18.54;87.40
7157;BME280;3620;49.862;8.758;2022-09-25T11:32:37;98850.06;;;18.38;86.80
7157;BME280;3620;49.862;8.758;2022-09-25T11:35:24;98846.88;;;18.55;87.45
7157;BME280;3620;49.862;8.758;2022-09-25T11:38:01;98839.16;;;18.41;88.33
7157;BME280;3620;49.862;8.758;2022-09-25T11:40:41;98846.97;;;18.33;87.73
7157;BME280;3620;49.862;8.758;2022-09-25T11:43:37;98847.44;;;18.27;88.82
7157;BME280;3620;49.862;8.758;2022-09-25T11:46:18;98842.97;;;18.27;88.20
7157;BME280;3620;49.862;8.758;2022-09-25T11:48:55;98841.13;;;17.96;90.23
7157;BME280;3620;49.862;8.758;2022-09-25T11:51:34;98846.75;;;18.14;90.72
7157;BME280;3620;49.862;8.758;2022-09-25T11:54:16;98850.34;;;17.92;92.31
7157;BME280;3620;49.862;8.758;2022-09-25T11:56:49;98843.72;;;17.76;93.99
7157;BME280;3620;49.862;8.758;2022-09-25T11:59:28;98840.94;;;17.88;94.15
7157;BME280;3620;49.862;8.758;2022-09-25T12:02:15;98835.59;;;17.88;94.57
7157;BME280;3620;49.862;8.758;2022-09-25T12:05:01;98843.13;;;17.50;95.15
7157;BME280;3620;49.862;8.758;2022-09-25T12:07:43;98849.16;;;17.08;97.51
7157;BME280;3620;49.862;8.758;2022-09-25T12:10:26;98860.91;;;16.36;100.00
7157;BME280;3620;49.862;8.758;2022-09-25T12:12:59;98837.97;;;16.35;100.00
7157;BME280;3620;49.862;8.758;2022-09-25T12:15:41;98854.63;;;16.37;100.00
7157;BME280;3620;49.862;8.758;2022-09-25T12:18:18;98850.03;;;16.04;100.00
7157;BME280;3620;49.862;8.758;2022-09-25T12:20:51;98849.19;;;16.03;100.00
7157;BME280;3620;49.862;8.758;2022-09-25T12:23:28;98843.09;;;15.78;100.00
7157;BME280;3620;49.862;8.758;2022-09-25T12:26:16;98842.63;;;15.73;100.00
7157;BME280;3620;49.862;8.758;2022-09-25T12:28:59;98844.88;;;15.66;100.00
7157;BME280;3620;49.862;8.758;2022-09-25T12:31:40;98844.56;;;15.58;100.00
7157;BME280;3620;49.862;8.758;2022-09-25T12:34:25;98844.63;;;15.69;100.00
7157;BME280;3620;49.862;8.758;2022-09-25T12:37:06;98850.16;;;15.66;100.00
7157;BME280;3620;49.862;8.758;2022-09-25T12:39:38;98837.94;;;15.76;100.00
7157;BME280;3620;49.862;8.758;2022-09-25T12:42:10;98846.25;;;15.95;100.00
7157;BME280;3620;49.862;8.758;2022-09-25T12:44:45;98841.78;;;15.96;100.00
7157;BME280;3620;49.862;8.758;2022-09-25T12:47:19;98842.84;;;15.93;100.00
7157;BME280;3620;49.862;8.758;2022-09-25T12:49:51;98849.59;;;15.74;100.00
7157;BME280;3620;49.862;8.758;2022-09-25T12:52:24;98839.31;;;15.69;100.00
7157;BME280;3620;49.862;8.758;2022-09-25T12:54:58;98843.63;;;15.83;100.00
7157;BME280;3620;49.862;8.758;2022-09-25T12:57:31;98848.19;;;16.04;100.00
7157;BME280;3620;49.862;8.758;2022-09-25T13:00:04;98850.84;;;16.04;100.00
7157;BME280;3620;49.862;8.758;2022-09-25T13:02:38;98843.09;;;15.90;100.00
7157;BME280;3620;49.862;8.758;2022-09-25T13:05:10;98845.34;;;15.84;100.00
7157;BME280;3620;49.862;8.758;2022-09-25T13:07:45;98842.50;;;15.74;100.00
7157;BME280;3620;49.862;8.758;2022-09-25T13:10:25;98842.91;;;16.04;100.00
7157;BME280;3620;49.862;8.758;2022-09-25T13:12:56;98836.19;;;16.11;100.00
7157;BME280;3620;49.862;8.758;2022-09-25T13:15:28;98840.63;;;15.51;100.00
7157;BME280;3620;49.862;8.758;2022-09-25T13:17:56;98838.31;;;15.59;100.00
7157;BME280;3620;49.862;8.758;2022-09-25T13:20:46;98839.13;;;15.72;100.00
7157;BME280;3620;49.862;8.758;2022-09-25T13:23:15;98848.34;;;15.67;100.00
7157;BME280;3620;49.862;8.758;2022-09-25T13:25:46;98843.28;;;15.87;100.00
7157;BME280;3620;49.862;8.758;2022-09-25T13:28:20;98845.22;;;15.85;100.00
7157;BME280;3620;49.862;8.758;2022-09-25T13:31:00;98848.38;;;15.90;100.00
7157;BME280;3620;49.862;8.758;2022-09-25T13:33:28;98848.97;;;16.06;100.00
7157;BME280;3620;49.862;8.758;2022-09-25T13:36:06;98850.19;;;16.13;100.00